This is the latest recevied weather packets stored in our database for station/object KD4KKF. If no packets are shown the sender has not sent any weather packets the latest 10 day(s).
| Time | Temp. | Humidity | Pressure | Rain* | Wind** | Luminosity | Snow |
|---|---|---|---|---|---|---|---|
| 1777394918 | 20° C | 99% | 1017.8 hPa | 0 mm | - | 219 W/m² | - |
| 1777394614 | 20° C | 99% | 1018.3 hPa | 1.27 mm | - | 105 W/m² | - |
| 1777394311 | 20° C | 99% | 1018 hPa | 3.05 mm | - | 121 W/m² | - |
| 1777394007 | 20° C | 99% | 1018.3 hPa | 3.05 mm | - | 124 W/m² | - |
| 1777393707 | 20° C | 99% | 1018.4 hPa | 3.05 mm | - | 100 W/m² | - |
| 1777393402 | 20° C | 99% | 1018.6 hPa | 1.78 mm | - | 79 W/m² | - |
| 1777393098 | 20° C | 99% | 1018.6 hPa | 3.05 mm | - | 44 W/m² | - |
| 1777392789 | 20° C | 99% | 1018.7 hPa | 3.05 mm | - | 23 W/m² | - |
| 1777392485 | 20° C | 99% | 1018.5 hPa | 3.05 mm | - | 19 W/m² | - |
| 1777392181 | 20° C | 99% | 1018.2 hPa | 1.27 mm | - | 15 W/m² | - |
| 1777391876 | 20° C | 99% | 1018 hPa | 3.05 mm | - | 10 W/m² | - |
| 1777391571 | 20° C | 99% | 1018.4 hPa | 1.78 mm | - | 16 W/m² | - |
| 1777391268 | 20° C | 99% | 1018.1 hPa | 1.78 mm | - | 21 W/m² | - |
| 1777390965 | 20° C | 99% | 1018.3 hPa | 4.83 mm | - | 23 W/m² | - |
| 1777390661 | 20° C | 99% | 1018.6 hPa | 3.05 mm | - | 20 W/m² | - |
| 1777390358 | 19.44° C | 99% | 1018.2 hPa | 0 mm | - | 29 W/m² | - |
| 1777390053 | 19.44° C | 99% | 1018.6 hPa | 0 mm | - | 21 W/m² | - |
| 1777389751 | 19.44° C | 99% | 1018.3 hPa | 0 mm | - | 49 W/m² | - |
| 1777389447 | 19.44° C | 99% | 1018.2 hPa | 1.27 mm | - | 50 W/m² | - |
| 1777389145 | 19.44° C | 99% | 1017.9 hPa | 1.27 mm | - | 72 W/m² | - |
| 1777388843 | 19.44° C | 99% | 1018 hPa | 1.27 mm | - | 88 W/m² | - |
| 1777388539 | 19.44° C | 99% | 1018.1 hPa | 0 mm | - | 98 W/m² | - |
| 1777388235 | 19.44° C | 99% | 1018 hPa | 1.78 mm | - | 92 W/m² | - |
| 1777387929 | 19.44° C | 99% | 1017.6 hPa | 3.05 mm | - | 121 W/m² | - |
| 1777387621 | 18.89° C | 99% | 1017.8 hPa | 1.27 mm | - | 84 W/m² | - |
* Rain latest hour (hover to see other rain measurements)
** Current wind speed in m/s (hover to see current wind gust speed)